Time;durP1;ratioP1;P1;durP2;ratioP2;P2;SDS_P1;SDS_P2;PMS_P1;PMS_P2;Temp;Humidity;BMP_temperature;BMP_pressure;BME280_temperature;BME280_humidity;BME280_pressure;Samples;Min_cycle;Max_cycle;Signal;HPM_P1;HPM_P2
2023/01/01 00:00:38;;;;;;;355.9;264.5;;;;;;;;;;;;;
2023/01/01 00:03:11;;;;;;;317.8;231.2;;;;;;;;;;;;;
2023/01/01 00:05:36;;;;;;;269.5;185.8;;;;;;;;;;;;;
2023/01/01 00:08:01;;;;;;;259;177.2;;;;;;;;;;;;;
2023/01/01 00:10:30;;;;;;;167.7;117.3;;;;;;;;;;;;;
2023/01/01 00:12:58;;;;;;;177;116;;;;;;;;;;;;;
2023/01/01 00:15:25;;;;;;;187.5;128.2;;;;;;;;;;;;;
2023/01/01 00:17:52;;;;;;;136;93.1;;;;;;;;;;;;;
2023/01/01 00:20:22;;;;;;;101.2;71.4;;;;;;;;;;;;;
2023/01/01 00:22:47;;;;;;;91.2;62.2;;;;;;;;;;;;;
2023/01/01 00:25:17;;;;;;;55.8;37.3;;;;;;;;;;;;;
2023/01/01 00:27:41;;;;;;;70.6;48.2;;;;;;;;;;;;;
2023/01/01 00:30:07;;;;;;;79.1;52.2;;;;;;;;;;;;;
2023/01/01 00:32:33;;;;;;;94.4;62.8;;;;;;;;;;;;;
2023/01/01 00:35:01;;;;;;;101.9;66.5;;;;;;;;;;;;;
2023/01/01 00:37:26;;;;;;;79.4;54.1;;;;;;;;;;;;;
2023/01/01 00:39:51;;;;;;;190.9;126.9;;;;;;;;;;;;;
2023/01/01 00:42:16;;;;;;;135.4;89.5;;;;;;;;;;;;;
2023/01/01 00:44:42;;;;;;;120;79.8;;;;;;;;;;;;;
2023/01/01 00:47:08;;;;;;;126.8;83.6;;;;;;;;;;;;;
2023/01/01 00:49:33;;;;;;;89;60.7;;;;;;;;;;;;;
2023/01/01 00:51:58;;;;;;;99.8;66.7;;;;;;;;;;;;;
2023/01/01 00:54:25;;;;;;;128.4;83.8;;;;;;;;;;;;;
2023/01/01 00:56:50;;;;;;;115;73.8;;;;;;;;;;;;;
2023/01/01 00:59:16;;;;;;;93.8;58.6;;;;;;;;;;;;;
2023/01/01 01:01:41;;;;;;;93.4;62.8;;;;;;;;;;;;;
2023/01/01 01:04:08;;;;;;;92.3;61.1;;;;;;;;;;;;;
2023/01/01 01:06:33;;;;;;;88.9;58.8;;;;;;;;;;;;;
2023/01/01 01:08:58;;;;;;;62.7;41.2;;;;;;;;;;;;;
2023/01/01 01:11:23;;;;;;;56.3;38.1;;;;;;;;;;;;;
2023/01/01 01:13:49;;;;;;;45.2;28.6;;;;;;;;;;;;;
2023/01/01 01:16:14;;;;;;;41.5;28.3;;;;;;;;;;;;;
2023/01/01 01:18:40;;;;;;;40;27.1;;;;;;;;;;;;;
2023/01/01 01:21:05;;;;;;;37.2;27.9;;;;;;;;;;;;;
2023/01/01 01:23:31;;;;;;;42;28.4;;;;;;;;;;;;;
2023/01/01 01:25:56;;;;;;;34.5;23.8;;;;;;;;;;;;;
2023/01/01 01:28:23;;;;;;;30.4;21.6;;;;;;;;;;;;;
2023/01/01 01:30:48;;;;;;;25.2;18.1;;;;;;;;;;;;;
2023/01/01 01:33:15;;;;;;;26.7;19;;;;;;;;;;;;;
2023/01/01 01:35:40;;;;;;;30.9;21.2;;;;;;;;;;;;;
2023/01/01 01:38:05;;;;;;;33.9;24.6;;;;;;;;;;;;;
2023/01/01 01:40:30;;;;;;;26;18.4;;;;;;;;;;;;;
2023/01/01 01:42:58;;;;;;;22.7;15.1;;;;;;;;;;;;;
2023/01/01 01:46:30;;;;;;;20.2;14.6;;;;;;;;;;;;;
2023/01/01 01:48:55;;;;;;;16.2;11.4;;;;;;;;;;;;;
2023/01/01 01:51:22;;;;;;;17.4;12.3;;;;;;;;;;;;;
2023/01/01 01:53:47;;;;;;;19.1;12.8;;;;;;;;;;;;;
2023/01/01 01:56:14;;;;;;;11.8;8.4;;;;;;;;;;;;;
2023/01/01 01:58:39;;;;;;;11.5;8.5;;;;;;;;;;;;;
2023/01/01 02:01:04;;;;;;;8.8;6.8;;;;;;;;;;;;;
2023/01/01 02:03:29;;;;;;;9;7.1;;;;;;;;;;;;;
2023/01/01 02:05:58;;;;;;;14.6;10.2;;;;;;;;;;;;;
2023/01/01 02:08:23;;;;;;;13.8;10;;;;;;;;;;;;;
2023/01/01 02:10:48;;;;;;;15;9.8;;;;;;;;;;;;;
2023/01/01 02:13:14;;;;;;;21.9;14.6;;;;;;;;;;;;;
2023/01/01 02:15:41;;;;;;;27.7;19.2;;;;;;;;;;;;;
2023/01/01 02:18:06;;;;;;;31.6;21.2;;;;;;;;;;;;;
2023/01/01 02:20:33;;;;;;;29;20.1;;;;;;;;;;;;;
2023/01/01 02:22:58;;;;;;;32;19.9;;;;;;;;;;;;;
2023/01/01 02:25:23;;;;;;;29;19.1;;;;;;;;;;;;;
2023/01/01 02:27:48;;;;;;;39.2;28.4;;;;;;;;;;;;;
2023/01/01 02:30:15;;;;;;;23.5;16.2;;;;;;;;;;;;;
2023/01/01 02:32:40;;;;;;;18.6;15.4;;;;;;;;;;;;;
2023/01/01 02:35:34;;;;;;;21.4;14.5;;;;;;;;;;;;;
2023/01/01 02:37:34;;;;;;;23.7;15.7;;;;;;;;;;;;;
2023/01/01 02:39:59;;;;;;;22.4;14.3;;;;;;;;;;;;;
2023/01/01 02:42:25;;;;;;;19.9;13.5;;;;;;;;;;;;;
2023/01/01 02:44:50;;;;;;;18.4;12.7;;;;;;;;;;;;;
2023/01/01 02:47:15;;;;;;;18.5;13.1;;;;;;;;;;;;;
2023/01/01 02:49:40;;;;;;;21.3;15.1;;;;;;;;;;;;;
2023/01/01 02:52:06;;;;;;;20.7;15.1;;;;;;;;;;;;;
2023/01/01 02:54:31;;;;;;;13.9;10.2;;;;;;;;;;;;;
2023/01/01 02:56:56;;;;;;;12.7;9.2;;;;;;;;;;;;;
2023/01/01 03:01:46;;;;;;;11;8.2;;;;;;;;;;;;;
2023/01/01 03:04:12;;;;;;;14.9;8.3;;;;;;;;;;;;;
2023/01/01 03:06:36;;;;;;;5.8;4.6;;;;;;;;;;;;;
2023/01/01 03:09:01;;;;;;;9.6;7.1;;;;;;;;;;;;;
2023/01/01 03:11:26;;;;;;;12.8;9;;;;;;;;;;;;;
2023/01/01 03:13:52;;;;;;;13.5;9.4;;;;;;;;;;;;;
2023/01/01 03:16:17;;;;;;;12.2;8.5;;;;;;;;;;;;;
2023/01/01 03:18:45;;;;;;;12;9.1;;;;;;;;;;;;;
2023/01/01 03:21:10;;;;;;;12.9;8.9;;;;;;;;;;;;;
2023/01/01 03:23:36;;;;;;;14.5;9.2;;;;;;;;;;;;;
2023/01/01 03:26:00;;;;;;;13.6;9;;;;;;;;;;;;;
2023/01/01 03:28:27;;;;;;;12.3;8.6;;;;;;;;;;;;;
2023/01/01 03:30:52;;;;;;;13.3;8.8;;;;;;;;;;;;;
2023/01/01 03:33:21;;;;;;;12.1;7.9;;;;;;;;;;;;;
2023/01/01 03:35:45;;;;;;;10.4;7.9;;;;;;;;;;;;;
2023/01/01 03:38:11;;;;;;;11.3;7.7;;;;;;;;;;;;;
2023/01/01 03:40:36;;;;;;;10.6;6.9;;;;;;;;;;;;;
2023/01/01 03:43:01;;;;;;;10.7;7;;;;;;;;;;;;;
2023/01/01 03:45:26;;;;;;;10.4;6.6;;;;;;;;;;;;;
2023/01/01 03:47:52;;;;;;;8;5.1;;;;;;;;;;;;;
2023/01/01 03:50:17;;;;;;;9;5;;;;;;;;;;;;;
2023/01/01 03:52:43;;;;;;;6.3;4.6;;;;;;;;;;;;;
2023/01/01 03:55:09;;;;;;;6.5;4.8;;;;;;;;;;;;;
2023/01/01 03:57:34;;;;;;;6.5;5;;;;;;;;;;;;;
2023/01/01 03:59:59;;;;;;;7.4;5;;;;;;;;;;;;;
2023/01/01 04:02:34;;;;;;;8;5.2;;;;;;;6.7;83.24219;943.1956;;;;
2023/01/01 04:05:03;;;;;;;6.7;5;;;;;;;6.45;84.85742;943.2419;;;;
2023/01/01 04:07:28;;;;;;;7.6;5.4;;;;;;;6.35;84.96191;943.236;;;;
2023/01/01 04:10:00;;;;;;;8;5.1;;;;;;;6.36;85.66504;943.1811;;;;
2023/01/01 04:12:25;;;;;;;9.2;5.5;;;;;;;6.32;85.27148;943.1501;;;;
2023/01/01 04:14:54;;;;;;;8.1;5.1;;;;;;;6.33;85.28613;943.1833;;;;
2023/01/01 04:17:19;;;;;;;7;4.4;;;;;;;6.44;84.87598;943.2478;;;;
2023/01/01 04:19:45;;;;;;;6.3;4.2;;;;;;;6.45;84.78809;943.1872;;;;
2023/01/01 04:22:10;;;;;;;7;4.8;;;;;;;6.35;85.70801;943.2375;;;;
2023/01/01 04:24:36;;;;;;;8.8;4.8;;;;;;;6.43;85.31738;943.2492;;;;
2023/01/01 04:27:01;;;;;;;14.5;8.4;;;;;;;6.48;84.9082;943.3244;;;;
2023/01/01 04:29:29;;;;;;;22;11.5;;;;;;;6.22;85.90918;943.3077;;;;
2023/01/01 04:31:54;;;;;;;14.1;8.8;;;;;;;5.98;86.83008;943.3714;;;;
2023/01/01 04:34:24;;;;;;;8.3;6.1;;;;;;;5.88;87.72656;943.3804;;;;
2023/01/01 04:36:49;;;;;;;8.7;5.7;;;;;;;6.08;86.64648;943.4196;;;;
2023/01/01 04:39:14;;;;;;;6.7;4.6;;;;;;;6.37;84.95215;943.3908;;;;
2023/01/01 04:41:42;;;;;;;8.3;4.7;;;;;;;6.31;84.81738;943.4142;;;;
2023/01/01 04:44:07;;;;;;;6.2;4.2;;;;;;;6.3;84.98535;943.4794;;;;
2023/01/01 04:46:36;;;;;;;7.1;4.2;;;;;;;6.31;85.13379;943.5803;;;;
2023/01/01 04:49:01;;;;;;;7.3;3.9;;;;;;;6.33;84.71973;943.6212;;;;
2023/01/01 04:51:27;;;;;;;9.3;4.2;;;;;;;6.39;84.60742;943.6042;;;;
2023/01/01 04:53:53;;;;;;;9.2;5;;;;;;;6.4;84.125;943.6728;;;;
2023/01/01 04:56:20;;;;;;;6.1;4;;;;;;;6.29;84.74609;943.5669;;;;
2023/01/01 04:58:45;;;;;;;4.7;3.6;;;;;;;6.27;84.66309;943.6295;;;;
2023/01/01 05:01:15;;;;;;;6.4;4.4;;;;;;;6.23;84.47363;943.6471;;;;
2023/01/01 05:03:40;;;;;;;6.8;4.3;;;;;;;6.11;85.19629;943.6989;;;;
2023/01/01 05:06:06;;;;;;;5.5;4.2;;;;;;;6.08;85.4375;943.6376;;;;
2023/01/01 05:08:31;;;;;;;4.2;2.8;;;;;;;6.07;85.60742;943.6755;;;;
2023/01/01 05:10:59;;;;;;;4.9;3.4;;;;;;;6.14;85.03418;943.6802;;;;
2023/01/01 05:13:24;;;;;;;4.5;3.3;;;;;;;6.17;84.95996;943.6693;;;;
2023/01/01 05:15:55;;;;;;;3.4;3;;;;;;;6.15;84.93359;943.614;;;;
2023/01/01 05:18:20;;;;;;;4.5;3.5;;;;;;;6.14;85.02051;943.812;;;;
2023/01/01 05:20:53;;;;;;;6.2;3.9;;;;;;;6.16;84.83203;943.8531;;;;
2023/01/01 05:23:19;;;;;;;5.1;3.4;;;;;;;5.97;85.87012;943.8929;;;;
2023/01/01 05:25:46;;;;;;;7;4.6;;;;;;;5.91;86.25195;943.9009;;;;
2023/01/01 05:28:11;;;;;;;8.6;4.9;;;;;;;5.88;86.34863;943.9914;;;;
2023/01/01 05:30:42;;;;;;;7.6;4.6;;;;;;;5.86;86.58008;943.9643;;;;
2023/01/01 05:33:13;;;;;;;10.4;6.7;;;;;;;5.77;86.42676;943.9308;;;;
2023/01/01 05:35:43;;;;;;;11.7;6.5;;;;;;;5.65;86.94434;943.8909;;;;
2023/01/01 05:38:08;;;;;;;9.6;5.6;;;;;;;5.55;87.58984;943.92;;;;
2023/01/01 05:40:44;;;;;;;8.4;5.5;;;;;;;5.49;88.16406;943.932;;;;
2023/01/01 05:43:09;;;;;;;7.5;4.7;;;;;;;5.45;88.91504;943.9126;;;;
2023/01/01 05:45:43;;;;;;;5.9;3.5;;;;;;;5.52;89.39941;943.9638;;;;
2023/01/01 05:48:16;;;;;;;6;4.1;;;;;;;5.6;88.66211;943.96;;;;
2023/01/01 05:50:48;;;;;;;9.3;5.3;;;;;;;5.64;87.98145;943.9426;;;;
2023/01/01 05:53:14;;;;;;;9.6;5.6;;;;;;;5.54;88.38965;943.9537;;;;
2023/01/01 05:55:43;;;;;;;8.6;4.6;;;;;;;5.62;88.46289;944.0415;;;;
2023/01/01 05:58:14;;;;;;;5.8;4.4;;;;;;;5.86;87.56445;944.0317;;;;
2023/01/01 06:00:42;;;;;;;5.8;3.9;;;;;;;5.93;86.57422;944.0884;;;;
2023/01/01 06:03:08;;;;;;;6;3.8;;;;;;;5.9;86.51074;944.069;;;;
2023/01/01 06:05:38;;;;;;;6.1;4.2;;;;;;;5.91;86.39746;944.1467;;;;
2023/01/01 06:08:07;;;;;;;7.2;4.5;;;;;;;5.79;86.55664;944.1567;;;;
2023/01/01 06:10:32;;;;;;;6.6;4.2;;;;;;;5.68;87.13281;944.0825;;;;
2023/01/01 06:13:02;;;;;;;5.9;3.9;;;;;;;5.62;87.78613;944.0857;;;;
2023/01/01 06:15:37;;;;;;;5.2;3.3;;;;;;;5.65;88.1543;944.1834;;;;
2023/01/01 06:18:03;;;;;;;4.5;3;;;;;;;5.71;88.09766;944.2243;;;;
2023/01/01 06:20:33;;;;;;;4.4;3.3;;;;;;;5.9;86.90527;944.1528;;;;
2023/01/01 06:22:58;;;;;;;5.8;3.1;;;;;;;5.91;86.79297;944.2225;;;;
2023/01/01 06:25:26;;;;;;;4.2;2.9;;;;;;;6.1;86.24512;944.2742;;;;
2023/01/01 06:27:53;;;;;;;4.5;3.1;;;;;;;6.25;85.16895;944.3428;;;;
2023/01/01 06:30:18;;;;;;;6.5;4;;;;;;;6.14;85.24902;944.345;;;;
2023/01/01 06:32:46;;;;;;;7.9;5.2;;;;;;;6.12;85.09668;944.3592;;;;
2023/01/01 06:35:12;;;;;;;11.5;8.1;;;;;;;5.92;85.63281;944.4105;;;;
2023/01/01 06:38:25;;;;;;;12.5;7.8;;;;;;;5.83;86.29199;944.3956;;;;
2023/01/01 06:40:51;;;;;;;13.8;8.3;;;;;;;5.64;87.37207;944.3566;;;;
2023/01/01 06:43:16;;;;;;;10.8;7.3;;;;;;;5.53;87.77832;944.335;;;;
2023/01/01 06:45:47;;;;;;;9.5;6.3;;;;;;;5.44;88.41406;944.3755;;;;
2023/01/01 06:48:17;;;;;;;9.8;6.6;;;;;;;5.35;88.64551;944.3816;;;;
2023/01/01 06:50:42;;;;;;;8.4;5.6;;;;;;;5.38;89.10254;944.4094;;;;
2023/01/01 06:53:09;;;;;;;6.3;4.5;;;;;;;5.4;89.29785;944.3596;;;;
2023/01/01 06:55:37;;;;;;;5.3;4.1;;;;;;;5.63;88.82813;944.456;;;;
2023/01/01 06:58:08;;;;;;;7.2;5.4;;;;;;;5.75;86.7959;944.4475;;;;
2023/01/01 07:00:28;;;;;;;9.2;5.7;;;;;;;5.66;87.44336;944.4017;;;;
2023/01/01 07:02:54;;;;;;;8.8;6.1;;;;;;;5.65;87.375;944.4031;;;;
2023/01/01 07:05:25;;;;;;;8.6;6.1;;;;;;;5.59;87.15918;944.4572;;;;
2023/01/01 07:07:54;;;;;;;7.7;5.5;;;;;;;5.29;88.98047;944.4626;;;;
2023/01/01 07:10:24;;;;;;;8.2;6.3;;;;;;;5.19;89.70605;944.4327;;;;
2023/01/01 07:12:49;;;;;;;11.8;8.5;;;;;;;5.17;89.86035;944.454;;;;
2023/01/01 07:15:15;;;;;;;12.9;9.1;;;;;;;5.17;89.98242;944.4474;;;;
2023/01/01 07:17:41;;;;;;;11.9;7.5;;;;;;;5.25;89.43555;944.5023;;;;
2023/01/01 07:20:13;;;;;;;11.1;7.6;;;;;;;5.32;89.15527;944.4252;;;;
2023/01/01 07:22:43;;;;;;;9.3;6;;;;;;;5.47;88.5332;944.4196;;;;
2023/01/01 07:25:07;;;;;;;7.3;5.1;;;;;;;5.6;87.96289;944.3898;;;;
2023/01/01 07:27:41;;;;;;;4.5;3.4;;;;;;;5.72;87.49023;944.5097;;;;
2023/01/01 07:30:13;;;;;;;4.8;3.6;;;;;;;5.73;86.76953;944.386;;;;
2023/01/01 07:32:42;;;;;;;4.6;3.8;;;;;;;5.79;86.47754;944.4436;;;;
2023/01/01 07:35:07;;;;;;;6.5;4;;;;;;;5.86;85.9043;944.5139;;;;
2023/01/01 07:37:36;;;;;;;7.6;5;;;;;;;5.89;85.72949;944.6152;;;;
2023/01/01 07:40:01;;;;;;;7.8;5.3;;;;;;;5.89;85.57129;944.6674;;;;
2023/01/01 07:42:27;;;;;;;5.1;4;;;;;;;5.85;86.11523;944.6326;;;;
2023/01/01 07:44:54;;;;;;;5.4;3.7;;;;;;;5.87;86.13184;944.5867;;;;
2023/01/01 07:47:20;;;;;;;4.7;3.8;;;;;;;5.82;86.32422;944.6094;;;;
2023/01/01 07:49:49;;;;;;;5.2;3.9;;;;;;;5.76;86.5166;944.6892;;;;
2023/01/01 07:52:14;;;;;;;5.1;3.6;;;;;;;5.65;87.31738;944.6556;;;;
2023/01/01 07:54:41;;;;;;;5.1;4;;;;;;;5.65;87.55469;944.7252;;;;
2023/01/01 07:57:06;;;;;;;5.2;4.3;;;;;;;5.65;87.80469;944.6859;;;;
2023/01/01 07:59:33;;;;;;;8.3;6.1;;;;;;;5.76;87.71191;944.7079;;;;
2023/01/01 08:01:59;;;;;;;5.2;3.8;;;;;;;5.77;87.63477;944.695;;;;
2023/01/01 08:04:30;;;;;;;5.3;3.9;;;;;;;5.85;87.50488;944.8215;;;;
2023/01/01 08:06:55;;;;;;;12.8;8.1;;;;;;;5.95;86.67773;944.7551;;;;
2023/01/01 08:09:20;;;;;;;6;4.1;;;;;;;6.01;86.36328;944.7775;;;;
2023/01/01 08:11:51;;;;;;;4;3.1;;;;;;;6.03;86.20996;944.7586;;;;
2023/01/01 08:14:14;;;;;;;4.6;3.3;;;;;;;6.31;86.01563;944.7333;;;;
2023/01/01 08:16:39;;;;;;;4.6;3.1;;;;;;;7.1;82.9248;944.7473;;;;
2023/01/01 08:19:06;;;;;;;4.1;2.7;;;;;;;8.05;78.26074;944.7822;;;;
2023/01/01 08:21:31;;;;;;;2.9;2.6;;;;;;;8.92;74.3457;944.6884;;;;
2023/01/01 08:23:58;;;;;;;5.1;3.3;;;;;;;9.57;71.0293;944.7688;;;;
2023/01/01 08:26:23;;;;;;;5.4;4.8;;;;;;;9.75;69.9082;944.7288;;;;
2023/01/01 08:28:51;;;;;;;8.3;7.5;;;;;;;10.08;68.76465;944.611;;;;
2023/01/01 08:31:16;;;;;;;6.7;5.8;;;;;;;10.76;66.73633;944.5884;;;;
2023/01/01 08:33:42;;;;;;;5;4.5;;;;;;;11.28;64.58691;944.6351;;;;
2023/01/01 08:36:07;;;;;;;6.7;5.8;;;;;;;11.85;62.61035;944.5895;;;;
2023/01/01 08:38:32;;;;;;;6.5;4.8;;;;;;;11.88;62.13281;944.605;;;;
2023/01/01 08:41:00;;;;;;;6.1;5.3;;;;;;;12.39;61.20898;944.5438;;;;
2023/01/01 08:43:26;;;;;;;5.9;4.5;;;;;;;12.85;58.94336;944.558;;;;
2023/01/01 08:45:52;;;;;;;7.4;5.7;;;;;;;13.02;59.83984;944.5481;;;;
2023/01/01 08:48:17;;;;;;;7.2;5.7;;;;;;;12.46;59.91211;944.5139;;;;
2023/01/01 08:50:45;;;;;;;6;5.4;;;;;;;11.49;65.50879;944.6245;;;;
2023/01/01 08:53:10;;;;;;;6.6;5.2;;;;;;;10.44;69.79102;944.64;;;;
2023/01/01 08:55:40;;;;;;;5.2;4.3;;;;;;;9.81;71.54688;944.6919;;;;
2023/01/01 08:58:09;;;;;;;9.7;6.5;;;;;;;9.47;73.32324;944.6774;;;;
2023/01/01 09:00:34;;;;;;;7.9;6.4;;;;;;;9.2;74.30371;944.6806;;;;
2023/01/01 09:03:06;;;;;;;6.7;5.2;;;;;;;9.02;75.22949;944.6326;;;;
2023/01/01 09:05:36;;;;;;;6.1;4.7;;;;;;;8.89;75.18359;944.6853;;;;
2023/01/01 09:08:04;;;;;;;5.1;4.1;;;;;;;9.04;78.08691;944.6814;;;;
2023/01/01 09:10:29;;;;;;;5.4;4;;;;;;;9.35;77.62012;944.7411;;;;
2023/01/01 09:12:57;;;;;;;5.9;4.7;;;;;;;9.67;74.7168;944.735;;;;
2023/01/01 09:15:22;;;;;;;7;4.9;;;;;;;9.9;72.96387;944.7477;;;;
2023/01/01 09:17:50;;;;;;;6.3;4.8;;;;;;;10.11;71.2666;944.7159;;;;
2023/01/01 09:20:15;;;;;;;7;5;;;;;;;10.28;72.29883;944.7719;;;;
2023/01/01 09:22:46;;;;;;;5.2;4.5;;;;;;;10.44;70.23633;944.7753;;;;
2023/01/01 09:25:18;;;;;;;6.5;4.4;;;;;;;10.48;69.90137;944.8;;;;
2023/01/01 09:27:44;;;;;;;5.4;3.9;;;;;;;10.42;68.56836;944.7344;;;;
2023/01/01 09:30:16;;;;;;;4.5;3.5;;;;;;;10.24;69.70215;944.8075;;;;
2023/01/01 09:32:43;;;;;;;4.4;3.6;;;;;;;10.21;70.62109;944.8098;;;;
2023/01/01 09:35:08;;;;;;;4.7;3.6;;;;;;;10.3;70.83203;944.6919;;;;
2023/01/01 09:37:37;;;;;;;5.2;3.4;;;;;;;10.27;71.38379;944.8297;;;;
2023/01/01 09:40:02;;;;;;;5.3;4.5;;;;;;;10.27;71.21387;944.7811;;;;
2023/01/01 09:42:29;;;;;;;5.5;4.6;;;;;;;10.35;71.23828;944.7502;;;;
2023/01/01 09:44:54;;;;;;;19.7;18.1;;;;;;;10.5;70.60156;944.7623;;;;
2023/01/01 09:47:19;;;;;;;7.6;5.1;;;;;;;10.56;70.85059;944.7737;;;;
2023/01/01 09:49:44;;;;;;;6.6;4.8;;;;;;;10.68;70.10547;944.7311;;;;
2023/01/01 09:52:10;;;;;;;6.5;4.4;;;;;;;10.74;69.79492;944.7433;;;;
2023/01/01 09:54:35;;;;;;;8.1;4.9;;;;;;;10.8;69.69043;944.6163;;;;
2023/01/01 09:57:03;;;;;;;8.7;4.8;;;;;;;10.97;70.40234;944.6277;;;;
2023/01/01 09:59:28;;;;;;;8.9;5.5;;;;;;;10.99;70.13281;944.5905;;;;
2023/01/01 10:01:55;;;;;;;8.5;5.6;;;;;;;11.12;70.32422;944.625;;;;
2023/01/01 10:04:21;;;;;;;4.1;3.3;;;;;;;11.06;68.7959;944.5889;;;;
2023/01/01 10:06:48;;;;;;;3.9;3;;;;;;;11.02;69.2002;944.6017;;;;
2023/01/01 10:09:15;;;;;;;7.4;3.2;;;;;;;11.21;68.43945;944.5555;;;;
2023/01/01 10:11:40;;;;;;;5.7;3.7;;;;;;;11.21;68.58984;944.5308;;;;
2023/01/01 10:14:05;;;;;;;14.1;4.4;;;;;;;11.28;68.49707;944.4725;;;;
2023/01/01 10:16:30;;;;;;;6.9;3.9;;;;;;;11.27;67.62793;944.3543;;;;
2023/01/01 10:19:01;;;;;;;9.6;5.2;;;;;;;11.39;68.65234;944.4146;;;;
2023/01/01 10:21:26;;;;;;;12.7;6.3;;;;;;;11.54;68.29883;944.3789;;;;
2023/01/01 10:23:51;;;;;;;16.1;8.6;;;;;;;11.72;66.97559;944.4448;;;;
2023/01/01 10:26:16;;;;;;;7.7;4.3;;;;;;;11.83;66.5;944.447;;;;
2023/01/01 10:28:42;;;;;;;12.9;6.7;;;;;;;11.86;66.87207;944.3837;;;;
2023/01/01 10:31:07;;;;;;;9.7;4.7;;;;;;;12.03;67.16211;944.3074;;;;
2023/01/01 10:33:32;;;;;;;13.9;6.6;;;;;;;12.1;65.00586;944.2771;;;;
2023/01/01 10:35:57;;;;;;;9.9;4.6;;;;;;;12.25;65.14453;944.2778;;;;
2023/01/01 10:38:23;;;;;;;15.4;6;;;;;;;12.44;65.21875;944.2733;;;;
2023/01/01 10:40:50;;;;;;;7.6;4.1;;;;;;;12.62;62.06641;944.1956;;;;
2023/01/01 10:43:15;;;;;;;13.6;5.8;;;;;;;12.86;63.67285;944.2504;;;;
2023/01/01 10:45:45;;;;;;;13.2;4.7;;;;;;;13.08;61.90332;944.2346;;;;
2023/01/01 10:48:10;;;;;;;10.7;4.5;;;;;;;13.28;60.63281;944.1744;;;;
2023/01/01 10:50:38;;;;;;;11.4;5.5;;;;;;;13.42;59.62891;944.1343;;;;
2023/01/01 10:53:03;;;;;;;12.3;5;;;;;;;13.55;59.88867;944.0625;;;;
2023/01/01 10:55:33;;;;;;;11.2;4.6;;;;;;;13.66;60.37598;944.1404;;;;
2023/01/01 10:58:01;;;;;;;11.3;4.8;;;;;;;13.69;59.85156;944.0535;;;;
2023/01/01 11:00:27;;;;;;;11.3;4.7;;;;;;;13.84;60.25098;944.037;;;;
2023/01/01 11:03:00;;;;;;;5.5;3.9;;;;;;;13.81;59.01465;943.9436;;;;
2023/01/01 11:05:29;;;;;;;4.1;2.5;;;;;;;13.7;60.38184;943.9207;;;;
2023/01/01 11:07:54;;;;;;;2.9;2.1;;;;;;;13.76;60.67773;944.0066;;;;
2023/01/01 11:10:19;;;;;;;2.4;1.8;;;;;;;13.81;59.44043;943.9885;;;;
2023/01/01 11:12:47;;;;;;;2.7;1.7;;;;;;;13.91;58.4541;943.9694;;;;
2023/01/01 11:15:14;;;;;;;11.9;3;;;;;;;13.9;58.625;943.8948;;;;
2023/01/01 11:17:39;;;;;;;6.2;2.1;;;;;;;13.94;57.76855;943.8511;;;;
2023/01/01 11:20:12;;;;;;;9.4;2.2;;;;;;;13.98;58.63477;943.8152;;;;
2023/01/01 11:22:44;;;;;;;6.3;2.9;;;;;;;14.07;57.33594;943.8;;;;
2023/01/01 11:25:08;;;;;;;6;3.6;;;;;;;14.15;56.59863;943.769;;;;
2023/01/01 11:27:37;;;;;;;4.9;3.4;;;;;;;14.21;56.93945;943.7469;;;;
2023/01/01 11:30:02;;;;;;;4.9;3.3;;;;;;;14.32;56.28613;943.69;;;;
2023/01/01 11:32:33;;;;;;;6.4;3.9;;;;;;;14.44;56.10645;943.7303;;;;
2023/01/01 11:35:02;;;;;;;4.3;3.4;;;;;;;14.57;56.12305;943.673;;;;
2023/01/01 11:37:27;;;;;;;4.4;2.6;;;;;;;14.68;55.37695;943.5798;;;;
2023/01/01 11:39:53;;;;;;;3.4;2.1;;;;;;;14.75;54.50879;943.5254;;;;
2023/01/01 11:42:17;;;;;;;4.2;1.8;;;;;;;14.76;52.9873;943.4604;;;;
2023/01/01 11:44:43;;;;;;;2;1.8;;;;;;;14.86;52.58496;943.4978;;;;
2023/01/01 11:47:08;;;;;;;2.1;1.5;;;;;;;14.87;52.80566;943.4738;;;;
2023/01/01 11:49:33;;;;;;;3.6;2.2;;;;;;;14.91;53.7334;943.3808;;;;
2023/01/01 11:51:58;;;;;;;7;3.2;;;;;;;15.03;53.31055;943.2712;;;;
2023/01/01 11:54:23;;;;;;;5;2.3;;;;;;;15.02;55.06152;943.1774;;;;
2023/01/01 11:56:48;;;;;;;5.7;2.6;;;;;;;14.95;55.7793;943.149;;;;
2023/01/01 11:59:14;;;;;;;3.7;2.4;;;;;;;15.13;55.55957;943.0162;;;;
2023/01/01 12:01:40;;;;;;;4.3;2.1;;;;;;;15.33;54.78809;943.0099;;;;
2023/01/01 12:04:05;;;;;;;4.4;2.1;;;;;;;15.5;54.30176;942.9634;;;;
2023/01/01 12:06:34;;;;;;;9.5;2.8;;;;;;;15.55;54.88574;942.9328;;;;
2023/01/01 12:09:00;;;;;;;4.7;2.2;;;;;;;15.57;55.21191;942.907;;;;
2023/01/01 12:11:25;;;;;;;8.5;2.6;;;;;;;15.41;55.57129;942.8781;;;;
2023/01/01 12:13:51;;;;;;;6;2;;;;;;;15.47;56.13477;942.9033;;;;
2023/01/01 12:16:20;;;;;;;10.8;5.2;;;;;;;15.46;55.20801;942.8864;;;;
2023/01/01 12:18:46;;;;;;;2.6;1.9;;;;;;;15.45;52.875;942.8414;;;;
2023/01/01 12:21:15;;;;;;;5.4;2.6;;;;;;;15.45;54.94141;942.7612;;;;
2023/01/01 12:23:40;;;;;;;4;2.3;;;;;;;15.57;55.13086;942.8284;;;;
2023/01/01 12:26:06;;;;;;;5.1;3.3;;;;;;;15.59;53.64258;942.7974;;;;
2023/01/01 12:28:31;;;;;;;4.8;2.6;;;;;;;15.68;55.3291;942.8102;;;;
2023/01/01 12:30:56;;;;;;;5.6;2.6;;;;;;;15.55;54.66699;942.7561;;;;
2023/01/01 12:33:21;;;;;;;7.7;3.7;;;;;;;15.61;53.70313;942.7619;;;;
2023/01/01 12:35:48;;;;;;;14.3;3.8;;;;;;;15.75;53.8125;942.7338;;;;
2023/01/01 12:38:13;;;;;;;2;1.4;;;;;;;15.66;54.13574;942.7668;;;;
2023/01/01 12:40:40;;;;;;;3.2;1.5;;;;;;;15.68;53.09961;942.8326;;;;
2023/01/01 12:43:05;;;;;;;1.5;1.1;;;;;;;15.68;53.9082;942.8512;;;;
2023/01/01 12:45:33;;;;;;;1.7;1.1;;;;;;;15.56;54.01953;942.8428;;;;
2023/01/01 12:48:01;;;;;;;1;0.7;;;;;;;15.52;53.51855;942.8389;;;;
2023/01/01 12:50:26;;;;;;;1.1;0.9;;;;;;;15.45;54.24902;942.8166;;;;
2023/01/01 12:52:51;;;;;;;1.1;1;;;;;;;15.51;55.41113;942.8285;;;;
2023/01/01 12:55:17;;;;;;;1.9;1.5;;;;;;;15.62;55.8877;942.7269;;;;
2023/01/01 12:57:42;;;;;;;2.2;1.6;;;;;;;15.71;55.81836;942.717;;;;
2023/01/01 13:00:07;;;;;;;2.7;1.7;;;;;;;15.82;55.60156;942.7112;;;;
2023/01/01 13:02:38;;;;;;;3.1;1.3;;;;;;;15.84;54.50586;942.675;;;;
2023/01/01 13:05:02;;;;;;;2.5;1.4;;;;;;;15.84;54.36719;942.6478;;;;
2023/01/01 13:07:31;;;;;;;4.6;1.7;;;;;;;15.93;55.56934;942.608;;;;
2023/01/01 13:10:00;;;;;;;2.8;1.4;;;;;;;15.99;56.69824;942.5941;;;;
2023/01/01 13:12:25;;;;;;;2.3;1.2;;;;;;;16.08;55.80859;942.6655;;;;
2023/01/01 13:14:52;;;;;;;2.5;1.2;;;;;;;16.1;53.97168;942.659;;;;
2023/01/01 13:17:17;;;;;;;2;1.1;;;;;;;16.15;54.90332;942.6956;;;;
2023/01/01 13:19:42;;;;;;;1.5;1.2;;;;;;;16.2;55.15234;942.6392;;;;
2023/01/01 13:22:08;;;;;;;2;1.1;;;;;;;16.24;55.88574;942.7654;;;;
2023/01/01 13:24:33;;;;;;;2.1;1.2;;;;;;;16.14;55.42188;942.7247;;;;
2023/01/01 13:27:00;;;;;;;1.8;1.4;;;;;;;16.27;55.27637;942.7863;;;;
2023/01/01 13:29:25;;;;;;;1.5;1.1;;;;;;;16.24;55.86328;942.8056;;;;
2023/01/01 13:31:50;;;;;;;2.1;1.3;;;;;;;16.28;55.94922;942.7435;;;;
2023/01/01 13:34:16;;;;;;;0.8;0.8;;;;;;;16.93;53.51758;942.7864;;;;
2023/01/01 13:36:41;;;;;;;1.4;1.1;;;;;;;18.86;47.81738;942.7596;;;;
2023/01/01 13:39:09;;;;;;;0.9;0.9;;;;;;;21.43;41.05078;942.7503;;;;
2023/01/01 13:41:36;;;;;;;1;0.9;;;;;;;22.14;38.36035;942.7845;;;;
2023/01/01 13:44:00;;;;;;;1.4;0.9;;;;;;;22.91;36.72461;942.7403;;;;
2023/01/01 13:46:25;;;;;;;1.2;0.7;;;;;;;22.69;36.45898;942.7889;;;;
2023/01/01 13:48:50;;;;;;;2.9;1.8;;;;;;;22.15;38.41992;942.7762;;;;
2023/01/01 13:51:15;;;;;;;9.6;3.7;;;;;;;21.14;41.24512;942.8345;;;;
2023/01/01 13:53:40;;;;;;;9.7;5.2;;;;;;;19.37;44.13379;942.8295;;;;
2023/01/01 13:56:05;;;;;;;8.4;3.8;;;;;;;18.89;45.40039;942.7325;;;;
2023/01/01 13:58:32;;;;;;;10.3;4;;;;;;;18.5;45.34863;942.7503;;;;
2023/01/01 14:00:57;;;;;;;6.9;3;;;;;;;18.1;46.29492;942.6638;;;;
2023/01/01 14:03:23;;;;;;;3.9;2.9;;;;;;;16.93;48.79004;942.738;;;;
2023/01/01 14:05:50;;;;;;;5.9;3.5;;;;;;;16.23;51.39746;942.7551;;;;
2023/01/01 14:08:15;;;;;;;6.2;3;;;;;;;15.43;54.07324;942.7974;;;;
2023/01/01 14:10:40;;;;;;;7.2;3.5;;;;;;;14.92;56.42188;942.8195;;;;
2023/01/01 14:13:07;;;;;;;7;3.1;;;;;;;14.63;57.64063;942.8383;;;;
2023/01/01 14:15:36;;;;;;;5.1;3.3;;;;;;;14.42;58.5;942.8702;;;;
2023/01/01 14:18:01;;;;;;;8;4.2;;;;;;;14.22;59.46289;942.8597;;;;
2023/01/01 14:20:26;;;;;;;9.8;3.6;;;;;;;14.05;60.09473;942.8645;;;;
2023/01/01 14:22:53;;;;;;;7.9;4.7;;;;;;;13.74;61.30664;942.9052;;;;
2023/01/01 14:25:19;;;;;;;14.9;8.4;;;;;;;13.55;62.20117;942.9119;;;;
2023/01/01 14:27:47;;;;;;;15.5;8.6;;;;;;;13.43;62.90723;942.9288;;;;
2023/01/01 14:30:13;;;;;;;12.6;7.3;;;;;;;13.31;62.61328;942.9117;;;;
2023/01/01 14:32:38;;;;;;;10.6;6.1;;;;;;;13.5;62.44629;942.9628;;;;
2023/01/01 14:35:03;;;;;;;12.2;6;;;;;;;13.57;62.23633;943.0336;;;;
2023/01/01 14:37:28;;;;;;;11.6;7;;;;;;;13.42;62.53809;943.0536;;;;
2023/01/01 14:39:59;;;;;;;12.9;7.6;;;;;;;13.23;63.08496;943.1;;;;
2023/01/01 14:42:27;;;;;;;12.6;7.7;;;;;;;13.27;63.33203;943.0723;;;;
2023/01/01 14:44:52;;;;;;;15.1;7.2;;;;;;;13.24;63.33789;943.1152;;;;
2023/01/01 14:47:17;;;;;;;9.4;6.4;;;;;;;13.08;63.49902;943.0704;;;;
2023/01/01 14:49:44;;;;;;;13.6;8;;;;;;;12.9;64.21875;943.1118;;;;
2023/01/01 14:52:07;;;;;;;12.5;6.9;;;;;;;12.86;64.62695;943.1531;;;;
2023/01/01 14:54:32;;;;;;;13;7.9;;;;;;;12.82;64.62207;943.1735;;;;
2023/01/01 14:56:57;;;;;;;15;10.2;;;;;;;12.56;64.62695;943.1561;;;;
2023/01/01 14:59:25;;;;;;;17.3;11.6;;;;;;;12.25;65.37109;943.1719;;;;
2023/01/01 15:01:51;;;;;;;10.6;7.9;;;;;;;12.12;66.54395;943.2204;;;;
2023/01/01 15:04:17;;;;;;;12.7;7.5;;;;;;;12.08;66.1377;943.2838;;;;
2023/01/01 15:06:43;;;;;;;12.3;8;;;;;;;12.04;66.56738;943.2802;;;;
2023/01/01 15:09:08;;;;;;;13.6;8.5;;;;;;;12.01;67.02148;943.2914;;;;
2023/01/01 15:11:35;;;;;;;13;7.9;;;;;;;11.97;67.19727;943.2375;;;;
2023/01/01 15:14:01;;;;;;;16.6;9;;;;;;;11.84;67.875;943.1857;;;;
2023/01/01 15:16:33;;;;;;;13.1;8.2;;;;;;;11.81;68.35352;943.3386;;;;
2023/01/01 15:19:03;;;;;;;13.7;8.7;;;;;;;11.81;68.26074;943.3174;;;;
2023/01/01 15:21:29;;;;;;;16.9;8.4;;;;;;;11.78;67.98145;943.3519;;;;
2023/01/01 15:23:54;;;;;;;17.2;11;;;;;;;11.69;68.67676;943.3929;;;;
2023/01/01 15:26:19;;;;;;;15;9.5;;;;;;;11.61;68.91602;943.3398;;;;
2023/01/01 15:28:47;;;;;;;17.9;11.2;;;;;;;11.46;69.51074;943.3769;;;;
2023/01/01 15:31:12;;;;;;;19.1;11;;;;;;;11.32;69.95703;943.4127;;;;
2023/01/01 15:33:37;;;;;;;21.4;12;;;;;;;11.26;70.58691;943.4437;;;;
2023/01/01 15:36:03;;;;;;;31.5;18.8;;;;;;;11.03;71.86426;943.4009;;;;